createdAt,value
2018-04-23T00:01:26.585Z,39
2018-04-23T00:06:26.831Z,39
2018-04-23T00:11:26.859Z,39
2018-04-23T00:16:26.497Z,39
2018-04-23T00:21:26.807Z,39
2018-04-23T00:26:26.619Z,39
2018-04-23T00:31:26.866Z,39
2018-04-23T00:36:26.455Z,39
2018-04-23T00:41:26.519Z,39
2018-04-23T00:46:26.787Z,39
2018-04-23T00:51:26.520Z,40
2018-04-23T00:56:26.545Z,40
2018-04-23T01:01:26.672Z,40
2018-04-23T01:06:26.427Z,40
2018-04-23T01:11:26.521Z,41
2018-04-23T01:16:26.693Z,41
2018-04-23T01:21:26.829Z,41
2018-04-23T01:26:26.483Z,43
2018-04-23T01:31:26.508Z,43
2018-04-23T01:36:26.489Z,43
2018-04-23T01:41:26.666Z,43
2018-04-23T01:46:26.639Z,43
2018-04-23T01:51:26.668Z,43
2018-04-23T01:56:26.365Z,43
2018-04-23T02:01:26.493Z,43
2018-04-23T02:06:26.812Z,43
2018-04-23T02:11:26.604Z,43
2018-04-23T02:16:26.444Z,43
2018-04-23T02:21:26.357Z,43
2018-04-23T02:26:26.314Z,43
2018-04-23T02:31:26.337Z,47
2018-04-23T02:36:26.656Z,47
2018-04-23T02:41:26.274Z,47
2018-04-23T02:46:26.423Z,47
2018-04-23T02:51:26.556Z,47
2018-04-23T02:56:26.502Z,47
2018-04-23T03:01:26.405Z,47
2018-04-23T03:06:26.611Z,47
2018-04-23T03:11:26.623Z,47
2018-04-23T03:16:26.419Z,47
2018-04-23T03:21:26.572Z,47
2018-04-23T03:26:26.581Z,47
2018-04-23T03:31:26.277Z,47
2018-04-23T03:36:26.409Z,47
2018-04-23T03:41:26.645Z,47
2018-04-23T03:46:26.340Z,47
2018-04-23T03:51:26.443Z,47
2018-04-23T03:56:26.219Z,47
2018-04-23T04:01:26.347Z,47
2018-04-23T04:06:26.354Z,47
2018-04-23T04:11:26.421Z,47
2018-04-23T04:16:26.138Z,47
2018-04-23T04:21:26.329Z,47
2018-04-23T04:26:26.229Z,47
2018-04-23T04:31:26.404Z,47
2018-04-23T04:36:26.217Z,47
2018-04-23T04:41:26.170Z,47
2018-04-23T04:46:26.291Z,47
2018-04-23T04:51:26.167Z,47
2018-04-23T04:56:26.087Z,47
2018-04-23T05:01:26.340Z,47
2018-04-23T05:06:26.035Z,47
2018-04-23T05:11:26.463Z,50
2018-04-23T05:16:26.052Z,50
2018-04-23T05:21:26.155Z,51
2018-04-23T05:26:26.227Z,51
2018-04-23T05:31:26.169Z,51
2018-04-23T05:36:26.043Z,51
2018-04-23T05:41:26.116Z,50
2018-04-23T05:46:26.199Z,50
2018-04-23T05:51:26.146Z,50
2018-04-23T05:56:26.169Z,50
2018-04-23T06:01:26.007Z,50
2018-04-23T06:06:26.113Z,50
2018-04-23T06:11:25.928Z,50
2018-04-23T06:16:26.203Z,51
2018-04-23T06:21:26.565Z,51
2018-04-23T06:26:26.623Z,51
2018-04-23T06:31:26.161Z,51
2018-04-23T06:36:26.247Z,51
2018-04-23T06:41:26.235Z,51
2018-04-23T06:46:26.057Z,51
2018-04-23T06:51:26.343Z,51
2018-04-23T06:56:25.952Z,51
2018-04-23T07:01:26.341Z,51
2018-04-23T07:06:26.146Z,50
2018-04-23T07:11:26.276Z,50
2018-04-23T07:16:26.047Z,48
2018-04-23T07:21:26.083Z,48
2018-04-23T07:26:26.288Z,48
2018-04-23T07:31:26.147Z,48
2018-04-23T07:36:25.967Z,48
2018-04-23T07:41:25.945Z,48
2018-04-23T07:46:26.033Z,48
2018-04-23T07:51:26.053Z,47
2018-04-23T07:56:25.949Z,47
2018-04-23T08:01:25.949Z,47
2018-04-23T08:06:26.159Z,46
2018-04-23T08:11:26.001Z,46
2018-04-23T08:16:26.010Z,46
2018-04-23T08:21:26.128Z,45
2018-04-23T08:26:25.772Z,45
2018-04-23T08:31:26.002Z,45
2018-04-23T08:36:26.064Z,45
2018-04-23T08:41:25.832Z,44
2018-04-23T08:46:25.967Z,43
2018-04-23T08:51:26.063Z,41
2018-04-23T08:56:26.052Z,41
2018-04-23T09:01:25.918Z,41
2018-04-23T09:06:25.745Z,41
2018-04-23T09:11:25.878Z,41
2018-04-23T09:16:26.045Z,41
2018-04-23T09:21:26.077Z,41
2018-04-23T09:26:25.717Z,40
2018-04-23T09:31:26.035Z,39
2018-04-23T09:36:25.774Z,39
2018-04-23T09:41:25.911Z,39
2018-04-23T09:46:25.883Z,39
2018-04-23T09:51:25.984Z,39
2018-04-23T09:56:26.086Z,38
2018-04-23T10:01:25.737Z,37
2018-04-23T10:06:25.860Z,36
2018-04-23T10:11:25.913Z,37
2018-04-23T10:16:25.817Z,37
2018-04-23T10:21:25.736Z,37
2018-04-23T10:26:25.897Z,36
2018-04-23T10:31:25.706Z,36
2018-04-23T10:36:25.606Z,36
2018-04-23T10:41:25.777Z,36
2018-04-23T10:46:25.890Z,36
2018-04-23T10:51:25.790Z,36
2018-04-23T10:56:25.901Z,36
2018-04-23T11:01:25.741Z,35
2018-04-23T11:06:25.904Z,35
2018-04-23T11:11:25.673Z,35
2018-04-23T11:16:25.813Z,35
2018-04-23T11:21:25.724Z,34
2018-04-23T11:26:25.870Z,34
2018-04-23T11:31:25.716Z,34
2018-04-23T11:36:25.652Z,34
2018-04-23T11:41:25.605Z,34
2018-04-23T11:46:25.805Z,35
2018-04-23T11:51:25.465Z,35
2018-04-23T11:56:25.775Z,35
2018-04-23T12:01:25.878Z,35
2018-04-23T12:06:25.518Z,34
2018-04-23T12:11:25.521Z,34
2018-04-23T12:16:25.584Z,34
2018-04-23T12:21:25.634Z,35
2018-04-23T12:26:25.827Z,36
2018-04-23T12:31:25.621Z,36
2018-04-23T12:36:25.808Z,35
2018-04-23T12:41:25.894Z,35
2018-04-23T12:46:25.690Z,35
2018-04-23T12:51:25.525Z,35
2018-04-23T12:56:25.363Z,35
2018-04-23T13:01:25.697Z,35
2018-04-23T13:06:25.670Z,34
2018-04-23T13:11:25.615Z,35
2018-04-23T13:16:25.566Z,35
2018-04-23T13:21:25.363Z,35
2018-04-23T13:26:25.453Z,35
2018-04-23T13:31:25.420Z,35
2018-04-23T13:36:25.610Z,34
2018-04-23T13:41:25.545Z,34
2018-04-23T13:46:25.773Z,35
2018-04-23T13:51:25.343Z,35
2018-04-23T13:56:25.658Z,34
2018-04-23T14:01:25.387Z,34
2018-04-23T14:06:25.616Z,34
2018-04-23T14:11:25.476Z,34
2018-04-23T14:16:25.323Z,34
2018-04-23T14:21:25.588Z,34
2018-04-23T14:26:25.359Z,33
2018-04-23T14:31:25.450Z,33
2018-04-23T14:36:25.612Z,33
2018-04-23T14:41:25.298Z,33
2018-04-23T14:46:25.507Z,33
2018-04-23T14:51:25.322Z,33
2018-04-23T14:56:25.375Z,32
2018-04-23T15:01:25.412Z,32
2018-04-23T15:06:25.224Z,32
2018-04-23T15:11:25.267Z,33
2018-04-23T15:16:25.177Z,32
2018-04-23T15:21:25.514Z,32
2018-04-23T15:26:25.281Z,32
2018-04-23T15:31:25.210Z,32
2018-04-23T15:36:25.848Z,32
2018-04-23T15:41:25.269Z,33
2018-04-23T15:46:25.130Z,33
2018-04-23T15:51:25.381Z,33
2018-04-23T15:56:25.417Z,33
2018-04-23T16:01:25.138Z,33
2018-04-23T16:06:25.422Z,33
2018-04-23T16:11:25.283Z,33
2018-04-23T16:16:25.021Z,33
2018-04-23T16:21:25.075Z,33
2018-04-23T16:26:25.243Z,33
2018-04-23T16:31:25.104Z,33
2018-04-23T16:36:25.461Z,33
2018-04-23T16:41:25.323Z,33
2018-04-23T16:46:25.091Z,33
2018-04-23T16:51:25.141Z,33
2018-04-23T16:56:25.147Z,33
2018-04-23T17:01:25.507Z,33
2018-04-23T17:06:25.126Z,33
2018-04-23T17:11:25.180Z,33
2018-04-23T17:16:25.152Z,33
2018-04-23T17:21:25.075Z,35
2018-04-23T17:26:24.999Z,35
2018-04-23T17:31:25.206Z,35
2018-04-23T17:36:25.250Z,35
2018-04-23T17:41:25.175Z,35
2018-04-23T17:46:25.253Z,35
2018-04-23T17:51:25.016Z,35
2018-04-23T17:56:25.004Z,35
2018-04-23T18:01:25.240Z,35
2018-04-23T18:06:25.215Z,35
2018-04-23T18:11:25.252Z,35
2018-04-23T18:16:25.072Z,35
2018-04-23T18:21:24.972Z,35
2018-04-23T18:26:25.264Z,35
2018-04-23T18:31:24.912Z,35
2018-04-23T18:36:25.037Z,35
2018-04-23T18:41:25.239Z,35
2018-04-23T18:46:25.290Z,37
2018-04-23T18:51:25.299Z,37
2018-04-23T18:56:24.877Z,37
2018-04-23T19:01:24.936Z,37
2018-04-23T19:06:24.881Z,37
2018-04-23T19:11:25.277Z,38
2018-04-23T19:16:24.933Z,38
2018-04-23T19:21:24.954Z,38
2018-04-23T19:26:25.057Z,38
2018-04-23T19:31:24.990Z,38
2018-04-23T19:36:25.017Z,38
2018-04-23T19:41:24.835Z,38
2018-04-23T19:46:25.159Z,38
2018-04-23T19:51:25.186Z,38
2018-04-23T19:56:25.030Z,38
2018-04-23T20:01:24.972Z,38
2018-04-23T20:06:24.753Z,38
2018-04-23T20:11:25.031Z,38
2018-04-23T20:16:25.032Z,38
2018-04-23T20:21:24.965Z,41
2018-04-23T20:26:24.889Z,41
2018-04-23T20:31:24.833Z,42
2018-04-23T20:36:24.796Z,42
2018-04-23T20:41:25.021Z,42
2018-04-23T20:46:25.287Z,42
2018-04-23T20:51:25.324Z,42
2018-04-23T20:56:24.924Z,42
2018-04-23T21:01:25.337Z,42
2018-04-23T21:06:24.800Z,42
2018-04-23T21:11:24.955Z,42
2018-04-23T21:16:24.595Z,42
2018-04-23T21:21:24.783Z,42
2018-04-23T21:26:24.614Z,42
2018-04-23T21:31:24.745Z,42
2018-04-23T21:36:24.865Z,42
2018-04-23T21:41:24.797Z,42
2018-04-23T21:46:24.979Z,47
2018-04-23T21:51:24.667Z,47
2018-04-23T21:56:24.730Z,47
2018-04-23T22:01:24.986Z,47
2018-04-23T22:06:25.028Z,48
2018-04-23T22:11:24.714Z,48
2018-04-23T22:16:24.720Z,48
2018-04-23T22:21:24.786Z,48
2018-04-23T22:26:24.905Z,49
2018-04-23T22:31:24.598Z,49
2018-04-23T22:36:24.947Z,49
2018-04-23T22:41:24.640Z,49
2018-04-23T22:46:24.767Z,49
2018-04-23T22:51:24.923Z,49
2018-04-23T22:56:24.747Z,49
2018-04-23T23:01:24.980Z,49
2018-04-23T23:06:24.819Z,49
2018-04-23T23:11:24.653Z,49
2018-04-23T23:16:24.780Z,49
2018-04-23T23:21:24.539Z,49
2018-04-23T23:26:24.614Z,49
2018-04-23T23:31:24.706Z,49
2018-04-23T23:36:24.714Z,49
2018-04-23T23:41:25.461Z,49
2018-04-23T23:46:24.768Z,50
2018-04-23T23:51:24.589Z,50
2018-04-23T23:56:24.708Z,50
